Terminal Aerodrome Forecast
Issued by NWS

Home | Current Version | Previous Version | Text Only | Print | Product List | Glossary On
Versions: 1 2 3 4 5 6 7 8 9 10 11 12 13 14 15 16 17 18 19 20 21 22 23
931
FTUS43 KILX 080538
TAFBMI
TAF
KBMI 080538Z 0806/0906 29014G19KT P6SM BKN025
     FM080700 28013G21KT P6SM SCT028
     FM081600 28014G24KT P6SM BKN030
     FM081800 28015G25KT P6SM BKN020
     FM090300 30013KT P6SM BKN020=

USA.gov is the U.S. government's official web portal to all federal, state and local government web resources and services.